sensor_id;sensor_type;location;lat;lon;timestamp;pressure;altitude;pressure_sealevel;temperature;humidity
61035;BME280;46916;40.564;-7.958;2023-06-26T00:01:33;97717.97;;;23.43;65.79
61035;BME280;46916;40.564;-7.958;2023-06-26T00:03:33;97722.91;;;23.46;65.84
61035;BME280;46916;40.564;-7.958;2023-06-26T00:05:34;97723.72;;;23.46;65.99
61035;BME280;46916;40.564;-7.958;2023-06-26T00:07:34;97724.16;;;23.43;65.92
61035;BME280;46916;40.564;-7.958;2023-06-26T00:09:35;97719.44;;;23.45;65.89
61035;BME280;46916;40.564;-7.958;2023-06-26T00:11:36;97716.97;;;23.44;65.97
61035;BME280;46916;40.564;-7.958;2023-06-26T00:13:37;97715.31;;;23.43;65.68
61035;BME280;46916;40.564;-7.958;2023-06-26T00:15:37;97717.38;;;23.41;65.89
61035;BME280;46916;40.564;-7.958;2023-06-26T00:17:38;97721.91;;;23.40;65.90
61035;BME280;46916;40.564;-7.958;2023-06-26T00:19:39;97713.06;;;23.40;65.91
61035;BME280;46916;40.564;-7.958;2023-06-26T00:21:39;97713.25;;;23.38;65.88
61035;BME280;46916;40.564;-7.958;2023-06-26T00:23:41;97709.56;;;23.39;66.07
61035;BME280;46916;40.564;-7.958;2023-06-26T00:25:42;97718.00;;;23.36;65.89
61035;BME280;46916;40.564;-7.958;2023-06-26T00:27:42;97713.47;;;23.37;65.82
61035;BME280;46916;40.564;-7.958;2023-06-26T00:29:44;97715.91;;;23.38;65.95
61035;BME280;46916;40.564;-7.958;2023-06-26T00:31:45;97722.06;;;23.39;65.66
61035;BME280;46916;40.564;-7.958;2023-06-26T00:33:45;97714.06;;;23.39;65.84
61035;BME280;46916;40.564;-7.958;2023-06-26T00:35:46;97713.25;;;23.38;65.94
61035;BME280;46916;40.564;-7.958;2023-06-26T00:37:47;97705.84;;;23.34;65.80
61035;BME280;46916;40.564;-7.958;2023-06-26T00:39:47;97709.16;;;23.36;66.03
61035;BME280;46916;40.564;-7.958;2023-06-26T00:41:48;97710.16;;;23.35;65.96
61035;BME280;46916;40.564;-7.958;2023-06-26T00:43:49;97711.41;;;23.32;65.90
61035;BME280;46916;40.564;-7.958;2023-06-26T00:45:50;97719.59;;;23.31;66.01
61035;BME280;46916;40.564;-7.958;2023-06-26T00:47:51;97708.72;;;23.26;66.47
61035;BME280;46916;40.564;-7.958;2023-06-26T00:49:52;97714.47;;;23.22;66.31
61035;BME280;46916;40.564;-7.958;2023-06-26T00:51:53;97706.22;;;23.17;66.61
61035;BME280;46916;40.564;-7.958;2023-06-26T00:53:54;97713.22;;;23.18;66.56
61035;BME280;46916;40.564;-7.958;2023-06-26T00:55:55;97708.31;;;23.15;66.65
61035;BME280;46916;40.564;-7.958;2023-06-26T00:57:56;97711.38;;;23.19;66.48
61035;BME280;46916;40.564;-7.958;2023-06-26T00:59:57;97706.06;;;23.19;66.47
61035;BME280;46916;40.564;-7.958;2023-06-26T01:01:57;97705.84;;;23.20;66.53
61035;BME280;46916;40.564;-7.958;2023-06-26T01:03:58;97700.50;;;23.20;66.43
61035;BME280;46916;40.564;-7.958;2023-06-26T01:06:00;97700.72;;;23.19;66.77
61035;BME280;46916;40.564;-7.958;2023-06-26T01:08:01;97706.88;;;23.19;66.73
61035;BME280;46916;40.564;-7.958;2023-06-26T01:10:06;97704.59;;;23.16;66.69
61035;BME280;46916;40.564;-7.958;2023-06-26T01:12:07;97702.31;;;23.13;66.81
61035;BME280;46916;40.564;-7.958;2023-06-26T01:14:08;97702.72;;;23.10;66.78
61035;BME280;46916;40.564;-7.958;2023-06-26T01:16:09;97706.44;;;23.09;66.74
61035;BME280;46916;40.564;-7.958;2023-06-26T01:18:10;97695.75;;;23.09;66.67
61035;BME280;46916;40.564;-7.958;2023-06-26T01:20:12;97700.03;;;23.10;66.74
61035;BME280;46916;40.564;-7.958;2023-06-26T01:24:17;97695.75;;;23.09;66.97
61035;BME280;46916;40.564;-7.958;2023-06-26T01:26:26;97696.13;;;23.06;67.06
61035;BME280;46916;40.564;-7.958;2023-06-26T01:28:27;97696.56;;;23.03;66.92
61035;BME280;46916;40.564;-7.958;2023-06-26T01:30:32;97692.22;;;23.02;66.94
61035;BME280;46916;40.564;-7.958;2023-06-26T01:32:33;97688.13;;;22.99;67.06
61035;BME280;46916;40.564;-7.958;2023-06-26T01:34:34;97686.28;;;23.00;67.25
61035;BME280;46916;40.564;-7.958;2023-06-26T01:36:35;97682.97;;;22.98;67.39
61035;BME280;46916;40.564;-7.958;2023-06-26T01:38:39;97676.59;;;22.92;67.55
61035;BME280;46916;40.564;-7.958;2023-06-26T01:40:40;97672.22;;;22.85;67.73
61035;BME280;46916;40.564;-7.958;2023-06-26T01:42:41;97670.56;;;22.77;68.04
61035;BME280;46916;40.564;-7.958;2023-06-26T01:44:44;97677.75;;;22.77;68.62
61035;BME280;46916;40.564;-7.958;2023-06-26T01:47:03;97670.56;;;22.77;68.50
61035;BME280;46916;40.564;-7.958;2023-06-26T01:51:30;97675.72;;;22.85;68.14
61035;BME280;46916;40.564;-7.958;2023-06-26T01:53:37;97671.19;;;22.86;68.01
61035;BME280;46916;40.564;-7.958;2023-06-26T01:57:43;97670.19;;;22.87;68.00
61035;BME280;46916;40.564;-7.958;2023-06-26T01:59:46;97673.06;;;22.85;68.02
61035;BME280;46916;40.564;-7.958;2023-06-26T02:01:47;97666.72;;;22.86;67.94
61035;BME280;46916;40.564;-7.958;2023-06-26T02:03:48;97667.72;;;22.85;67.95
61035;BME280;46916;40.564;-7.958;2023-06-26T02:05:49;97664.41;;;22.77;68.15
61035;BME280;46916;40.564;-7.958;2023-06-26T02:07:50;97658.22;;;22.69;68.41
61035;BME280;46916;40.564;-7.958;2023-06-26T02:09:51;97656.16;;;22.65;68.67
61035;BME280;46916;40.564;-7.958;2023-06-26T02:11:52;97657.41;;;22.62;68.61
61035;BME280;46916;40.564;-7.958;2023-06-26T02:13:53;97658.63;;;22.60;68.77
61035;BME280;46916;40.564;-7.958;2023-06-26T02:15:53;97660.69;;;22.58;68.39
61035;BME280;46916;40.564;-7.958;2023-06-26T02:17:54;97650.59;;;22.60;68.59
61035;BME280;46916;40.564;-7.958;2023-06-26T02:19:55;97655.72;;;22.61;68.31
61035;BME280;46916;40.564;-7.958;2023-06-26T02:21:55;97659.44;;;22.60;68.46
61035;BME280;46916;40.564;-7.958;2023-06-26T02:23:58;97662.09;;;22.60;67.94
61035;BME280;46916;40.564;-7.958;2023-06-26T02:25:59;97656.59;;;22.62;68.09
61035;BME280;46916;40.564;-7.958;2023-06-26T02:28:00;97658.63;;;22.60;68.08
61035;BME280;46916;40.564;-7.958;2023-06-26T02:30:01;97650.78;;;22.52;68.36
61035;BME280;46916;40.564;-7.958;2023-06-26T02:32:02;97649.53;;;22.47;68.69
61035;BME280;46916;40.564;-7.958;2023-06-26T02:34:04;97659.41;;;22.47;68.41
61035;BME280;46916;40.564;-7.958;2023-06-26T02:36:04;97647.25;;;22.44;68.52
61035;BME280;46916;40.564;-7.958;2023-06-26T02:38:06;97650.75;;;22.45;68.81
61035;BME280;46916;40.564;-7.958;2023-06-26T02:40:07;97647.50;;;22.49;68.46
61035;BME280;46916;40.564;-7.958;2023-06-26T02:42:11;97650.78;;;22.52;68.17
61035;BME280;46916;40.564;-7.958;2023-06-26T02:44:12;97653.84;;;22.48;68.61
61035;BME280;46916;40.564;-7.958;2023-06-26T02:46:14;97646.66;;;22.49;68.35
61035;BME280;46916;40.564;-7.958;2023-06-26T02:48:14;97643.81;;;22.50;68.30
61035;BME280;46916;40.564;-7.958;2023-06-26T02:50:16;97644.19;;;22.47;68.10
61035;BME280;46916;40.564;-7.958;2023-06-26T02:52:46;97635.16;;;22.42;68.43
61035;BME280;46916;40.564;-7.958;2023-06-26T02:54:54;97641.28;;;22.36;68.25
61035;BME280;46916;40.564;-7.958;2023-06-26T02:56:55;97639.41;;;22.30;68.18
61035;BME280;46916;40.564;-7.958;2023-06-26T02:59:01;97639.41;;;22.30;68.42
61035;BME280;46916;40.564;-7.958;2023-06-26T03:01:03;97637.75;;;22.29;67.96
61035;BME280;46916;40.564;-7.958;2023-06-26T03:03:03;97636.75;;;22.30;67.77
61035;BME280;46916;40.564;-7.958;2023-06-26T03:05:04;97631.22;;;22.31;67.61
61035;BME280;46916;40.564;-7.958;2023-06-26T03:07:05;97627.72;;;22.31;67.95
61035;BME280;46916;40.564;-7.958;2023-06-26T03:09:06;97628.53;;;22.31;67.94
61035;BME280;46916;40.564;-7.958;2023-06-26T03:11:08;97626.91;;;22.30;67.44
61035;BME280;46916;40.564;-7.958;2023-06-26T03:13:10;97623.59;;;22.28;67.45
61035;BME280;46916;40.564;-7.958;2023-06-26T03:15:11;97628.94;;;22.28;67.90
61035;BME280;46916;40.564;-7.958;2023-06-26T03:17:13;97627.28;;;22.27;67.53
61035;BME280;46916;40.564;-7.958;2023-06-26T03:19:15;97628.31;;;22.26;67.69
61035;BME280;46916;40.564;-7.958;2023-06-26T03:21:36;97623.53;;;22.15;68.04
61035;BME280;46916;40.564;-7.958;2023-06-26T03:23:36;97625.59;;;22.13;68.31
61035;BME280;46916;40.564;-7.958;2023-06-26T03:25:37;97624.13;;;22.10;67.94
61035;BME280;46916;40.564;-7.958;2023-06-26T03:27:52;97621.66;;;22.09;67.95
61035;BME280;46916;40.564;-7.958;2023-06-26T03:29:53;97624.72;;;22.06;67.83
61035;BME280;46916;40.564;-7.958;2023-06-26T03:31:55;97628.41;;;22.05;67.96
61035;BME280;46916;40.564;-7.958;2023-06-26T03:33:57;97626.94;;;22.02;67.18
61035;BME280;46916;40.564;-7.958;2023-06-26T03:35:59;97633.31;;;22.01;66.78
61035;BME280;46916;40.564;-7.958;2023-06-26T03:38:01;97634.91;;;21.95;66.50
61035;BME280;46916;40.564;-7.958;2023-06-26T03:40:02;97627.09;;;21.94;66.69
61035;BME280;46916;40.564;-7.958;2023-06-26T03:42:05;97622.97;;;21.91;66.46
61035;BME280;46916;40.564;-7.958;2023-06-26T03:44:06;97626.09;;;21.95;66.36
61035;BME280;46916;40.564;-7.958;2023-06-26T03:46:19;97627.09;;;21.94;66.32
61035;BME280;46916;40.564;-7.958;2023-06-26T03:48:21;97627.94;;;21.94;66.70
61035;BME280;46916;40.564;-7.958;2023-06-26T03:50:22;97620.97;;;21.93;66.86
61035;BME280;46916;40.564;-7.958;2023-06-26T03:52:24;97620.31;;;21.91;67.48
61035;BME280;46916;40.564;-7.958;2023-06-26T03:54:25;97622.97;;;21.91;67.60
61035;BME280;46916;40.564;-7.958;2023-06-26T03:56:26;97614.97;;;21.91;67.82
61035;BME280;46916;40.564;-7.958;2023-06-26T03:58:27;97602.28;;;21.93;67.94
61035;BME280;46916;40.564;-7.958;2023-06-26T04:00:27;97617.50;;;21.99;68.42
61035;BME280;46916;40.564;-7.958;2023-06-26T04:02:28;97617.31;;;22.01;68.49
61035;BME280;46916;40.564;-7.958;2023-06-26T04:04:29;97613.81;;;22.00;68.48
61035;BME280;46916;40.564;-7.958;2023-06-26T04:06:30;97612.38;;;21.98;68.61
61035;BME280;46916;40.564;-7.958;2023-06-26T04:08:34;97616.50;;;22.00;68.41
61035;BME280;46916;40.564;-7.958;2023-06-26T04:10:35;97614.22;;;21.97;68.51
61035;BME280;46916;40.564;-7.958;2023-06-26T04:12:39;97614.38;;;21.96;68.61
61035;BME280;46916;40.564;-7.958;2023-06-26T04:14:40;97615.25;;;21.96;68.98
61035;BME280;46916;40.564;-7.958;2023-06-26T04:16:40;97610.72;;;21.97;69.09
61035;BME280;46916;40.564;-7.958;2023-06-26T04:18:41;97611.72;;;21.96;69.38
61035;BME280;46916;40.564;-7.958;2023-06-26T04:21:05;97613.56;;;21.95;68.92
61035;BME280;46916;40.564;-7.958;2023-06-26T04:23:08;97614.00;;;21.92;68.76
61035;BME280;46916;40.564;-7.958;2023-06-26T04:25:09;97620.13;;;21.93;68.59
61035;BME280;46916;40.564;-7.958;2023-06-26T04:27:12;97616.22;;;21.89;67.98
61035;BME280;46916;40.564;-7.958;2023-06-26T04:29:14;97614.75;;;21.86;68.20
61035;BME280;46916;40.564;-7.958;2023-06-26T04:31:14;97621.13;;;21.85;67.83
61035;BME280;46916;40.564;-7.958;2023-06-26T04:33:15;97616.81;;;21.84;68.00
61035;BME280;46916;40.564;-7.958;2023-06-26T04:35:16;97619.47;;;21.84;68.27
61035;BME280;46916;40.564;-7.958;2023-06-26T04:37:17;97620.91;;;21.80;68.16
61035;BME280;46916;40.564;-7.958;2023-06-26T04:39:17;97617.97;;;21.75;68.51
61035;BME280;46916;40.564;-7.958;2023-06-26T04:41:18;97621.22;;;21.70;68.28
61035;BME280;46916;40.564;-7.958;2023-06-26T04:43:18;97610.78;;;21.69;68.28
61035;BME280;46916;40.564;-7.958;2023-06-26T04:45:19;97608.09;;;21.69;68.66
61035;BME280;46916;40.564;-7.958;2023-06-26T04:47:20;97603.81;;;21.68;68.75
61035;BME280;46916;40.564;-7.958;2023-06-26T04:49:20;97604.78;;;21.67;68.79
61035;BME280;46916;40.564;-7.958;2023-06-26T04:51:21;97609.94;;;21.68;68.85
61035;BME280;46916;40.564;-7.958;2023-06-26T04:53:23;97609.94;;;21.68;69.54
61035;BME280;46916;40.564;-7.958;2023-06-26T04:55:24;97616.72;;;21.71;69.38
61035;BME280;46916;40.564;-7.958;2023-06-26T04:57:25;97608.53;;;21.72;68.74
61035;BME280;46916;40.564;-7.958;2023-06-26T04:59:25;97617.34;;;21.73;69.00
61035;BME280;46916;40.564;-7.958;2023-06-26T05:01:26;97612.63;;;21.75;69.04
61035;BME280;46916;40.564;-7.958;2023-06-26T05:03:29;97606.91;;;21.78;69.09
61035;BME280;46916;40.564;-7.958;2023-06-26T05:05:30;97606.91;;;21.78;68.83
61035;BME280;46916;40.564;-7.958;2023-06-26T05:07:30;97607.56;;;21.80;68.79
61035;BME280;46916;40.564;-7.958;2023-06-26T05:09:31;97605.72;;;21.81;68.87
61035;BME280;46916;40.564;-7.958;2023-06-26T05:11:32;97605.72;;;21.81;68.64
61035;BME280;46916;40.564;-7.958;2023-06-26T05:13:32;97611.03;;;21.81;68.34
61035;BME280;46916;40.564;-7.958;2023-06-26T05:15:33;97614.72;;;21.80;68.48
61035;BME280;46916;40.564;-7.958;2023-06-26T05:17:34;97610.22;;;21.80;68.06
61035;BME280;46916;40.564;-7.958;2023-06-26T05:19:34;97612.25;;;21.78;67.52
61035;BME280;46916;40.564;-7.958;2023-06-26T05:21:35;97613.88;;;21.72;67.67
61035;BME280;46916;40.564;-7.958;2023-06-26T05:23:36;97606.47;;;21.68;67.88
61035;BME280;46916;40.564;-7.958;2023-06-26T05:25:37;97622.41;;;21.61;67.46
61035;BME280;46916;40.564;-7.958;2023-06-26T05:27:38;97621.59;;;21.61;67.62
61035;BME280;46916;40.564;-7.958;2023-06-26T05:29:39;97620.94;;;21.59;67.48
61035;BME280;46916;40.564;-7.958;2023-06-26T05:31:41;97622.34;;;21.55;67.79
61035;BME280;46916;40.564;-7.958;2023-06-26T05:33:45;97626.03;;;21.54;67.40
61035;BME280;46916;40.564;-7.958;2023-06-26T05:35:48;97618.84;;;21.47;67.47
61035;BME280;46916;40.564;-7.958;2023-06-26T05:37:50;97625.88;;;21.34;68.21
61035;BME280;46916;40.564;-7.958;2023-06-26T05:39:51;97619.66;;;21.26;68.24
61035;BME280;46916;40.564;-7.958;2023-06-26T05:41:52;97623.44;;;21.32;68.34
61035;BME280;46916;40.564;-7.958;2023-06-26T05:43:52;97630.91;;;21.43;67.85
61035;BME280;46916;40.564;-7.958;2023-06-26T05:45:55;97621.53;;;21.54;67.59
61035;BME280;46916;40.564;-7.958;2023-06-26T05:47:56;97629.81;;;21.66;67.70
61035;BME280;46916;40.564;-7.958;2023-06-26T05:49:57;97622.09;;;21.77;67.22
61035;BME280;46916;40.564;-7.958;2023-06-26T05:51:58;97624.00;;;21.90;67.02
61035;BME280;46916;40.564;-7.958;2023-06-26T05:53:58;97625.91;;;21.96;66.62
61035;BME280;46916;40.564;-7.958;2023-06-26T05:55:59;97627.34;;;21.99;66.34
61035;BME280;46916;40.564;-7.958;2023-06-26T05:58:02;97624.88;;;21.97;66.15
61035;BME280;46916;40.564;-7.958;2023-06-26T06:00:03;97620.72;;;21.88;66.50
61035;BME280;46916;40.564;-7.958;2023-06-26T06:02:13;97625.00;;;21.83;66.21
61035;BME280;46916;40.564;-7.958;2023-06-26T06:04:14;97625.81;;;21.83;66.48
61035;BME280;46916;40.564;-7.958;2023-06-26T06:06:15;97628.72;;;21.88;66.25
61035;BME280;46916;40.564;-7.958;2023-06-26T06:08:16;97634.69;;;21.90;66.10
61035;BME280;46916;40.564;-7.958;2023-06-26T06:10:16;97629.56;;;21.95;66.05
61035;BME280;46916;40.564;-7.958;2023-06-26T06:12:17;97636.97;;;22.00;66.10
61035;BME280;46916;40.564;-7.958;2023-06-26T06:14:18;97630.81;;;21.99;65.46
61035;BME280;46916;40.564;-7.958;2023-06-26T06:16:18;97640.50;;;22.00;65.33
61035;BME280;46916;40.564;-7.958;2023-06-26T06:18:19;97638.22;;;21.97;65.31
61035;BME280;46916;40.564;-7.958;2023-06-26T06:20:20;97644.94;;;21.93;64.83
61035;BME280;46916;40.564;-7.958;2023-06-26T06:22:21;97640.00;;;21.90;65.11
61035;BME280;46916;40.564;-7.958;2023-06-26T06:24:22;97642.25;;;21.87;65.39
61035;BME280;46916;40.564;-7.958;2023-06-26T06:26:22;97647.13;;;21.83;65.25
61035;BME280;46916;40.564;-7.958;2023-06-26T06:28:23;97645.69;;;21.81;65.12
61035;BME280;46916;40.564;-7.958;2023-06-26T06:30:24;97642.81;;;21.82;65.43
61035;BME280;46916;40.564;-7.958;2023-06-26T06:32:24;97641.81;;;21.83;65.73
61035;BME280;46916;40.564;-7.958;2023-06-26T06:34:25;97658.44;;;21.85;65.70
61035;BME280;46916;40.564;-7.958;2023-06-26T06:36:26;97650.25;;;21.87;65.81
61035;BME280;46916;40.564;-7.958;2023-06-26T06:38:27;97658.06;;;21.88;66.17
61035;BME280;46916;40.564;-7.958;2023-06-26T06:40:28;97664.38;;;21.87;66.48
61035;BME280;46916;40.564;-7.958;2023-06-26T06:42:28;97664.66;;;21.92;66.40
61035;BME280;46916;40.564;-7.958;2023-06-26T06:44:29;97667.31;;;21.92;66.35
61035;BME280;46916;40.564;-7.958;2023-06-26T06:46:30;97658.91;;;21.95;66.45
61035;BME280;46916;40.564;-7.958;2023-06-26T06:48:31;97662.81;;;21.93;66.54
61035;BME280;46916;40.564;-7.958;2023-06-26T06:50:32;97663.78;;;21.92;66.96
61035;BME280;46916;40.564;-7.958;2023-06-26T06:52:37;97666.63;;;21.84;66.81
61035;BME280;46916;40.564;-7.958;2023-06-26T06:54:52;97661.25;;;21.77;66.67
61035;BME280;46916;40.564;-7.958;2023-06-26T06:56:53;97660.63;;;21.75;66.85
61035;BME280;46916;40.564;-7.958;2023-06-26T06:58:54;97668.22;;;21.78;67.00
61035;BME280;46916;40.564;-7.958;2023-06-26T07:00:54;97670.47;;;21.74;67.24
61035;BME280;46916;40.564;-7.958;2023-06-26T07:02:56;97668.81;;;21.73;67.65
61035;BME280;46916;40.564;-7.958;2023-06-26T07:04:56;97660.00;;;21.73;67.65
61035;BME280;46916;40.564;-7.958;2023-06-26T07:06:57;97666.22;;;21.80;68.13
61035;BME280;46916;40.564;-7.958;2023-06-26T07:08:58;97661.56;;;21.95;68.79
61035;BME280;46916;40.564;-7.958;2023-06-26T07:10:59;97655.91;;;22.12;68.50
61035;BME280;46916;40.564;-7.958;2023-06-26T07:13:00;97663.31;;;22.10;67.32
61035;BME280;46916;40.564;-7.958;2023-06-26T07:15:02;97664.22;;;22.23;69.97
61035;BME280;46916;40.564;-7.958;2023-06-26T07:17:04;97665.34;;;22.42;69.18
61035;BME280;46916;40.564;-7.958;2023-06-26T07:19:05;97671.31;;;22.51;68.16
61035;BME280;46916;40.564;-7.958;2023-06-26T07:33:58;97667.00;;;23.71;67.91
61035;BME280;46916;40.564;-7.958;2023-06-26T07:35:59;97668.66;;;23.79;66.37
61035;BME280;46916;40.564;-7.958;2023-06-26T07:37:59;97664.31;;;23.71;65.74
61035;BME280;46916;40.564;-7.958;2023-06-26T07:40:00;97667.81;;;23.58;65.60
61035;BME280;46916;40.564;-7.958;2023-06-26T07:42:00;97666.16;;;23.37;65.83
61035;BME280;46916;40.564;-7.958;2023-06-26T07:44:01;97672.13;;;23.19;66.32
61035;BME280;46916;40.564;-7.958;2023-06-26T07:46:02;97675.63;;;23.07;66.65
61035;BME280;46916;40.564;-7.958;2023-06-26T07:48:03;97672.72;;;22.95;66.99
61035;BME280;46916;40.564;-7.958;2023-06-26T07:50:04;97671.63;;;22.89;67.42
61035;BME280;46916;40.564;-7.958;2023-06-26T07:52:06;97674.91;;;22.78;67.79
61035;BME280;46916;40.564;-7.958;2023-06-26T07:54:07;97678.56;;;22.70;68.28
61035;BME280;46916;40.564;-7.958;2023-06-26T07:56:08;97685.75;;;22.70;68.21
61035;BME280;46916;40.564;-7.958;2023-06-26T07:58:09;97681.22;;;22.64;68.68
61035;BME280;46916;40.564;-7.958;2023-06-26T08:00:12;97685.72;;;22.63;68.40
61035;BME280;46916;40.564;-7.958;2023-06-26T08:02:27;97676.91;;;22.69;68.44
61035;BME280;46916;40.564;-7.958;2023-06-26T08:04:28;97683.69;;;22.72;69.00
61035;BME280;46916;40.564;-7.958;2023-06-26T08:06:32;97674.91;;;22.85;68.55
61035;BME280;46916;40.564;-7.958;2023-06-26T08:08:32;97678.69;;;23.04;67.99
61035;BME280;46916;40.564;-7.958;2023-06-26T08:10:33;97676.44;;;23.20;67.26
61035;BME280;46916;40.564;-7.958;2023-06-26T08:12:35;97680.97;;;23.33;67.76
61035;BME280;46916;40.564;-7.958;2023-06-26T08:14:37;97677.69;;;23.44;67.11
61035;BME280;46916;40.564;-7.958;2023-06-26T08:16:38;97676.66;;;23.59;66.80
61035;BME280;46916;40.564;-7.958;2023-06-26T08:18:39;97670.09;;;23.75;66.44
61035;BME280;46916;40.564;-7.958;2023-06-26T08:20:40;97673.59;;;23.88;66.18
61035;BME280;46916;40.564;-7.958;2023-06-26T08:22:40;97673.56;;;23.95;65.66
61035;BME280;46916;40.564;-7.958;2023-06-26T08:24:41;97672.97;;;23.93;65.99
61035;BME280;46916;40.564;-7.958;2023-06-26T08:26:42;97673.19;;;23.78;65.92
61035;BME280;46916;40.564;-7.958;2023-06-26T08:28:43;97682.44;;;23.69;66.47
61035;BME280;46916;40.564;-7.958;2023-06-26T08:30:43;97679.31;;;23.59;66.91
61035;BME280;46916;40.564;-7.958;2023-06-26T08:32:44;97677.50;;;23.53;66.97
61035;BME280;46916;40.564;-7.958;2023-06-26T08:34:45;97680.78;;;23.41;67.48
61035;BME280;46916;40.564;-7.958;2023-06-26T08:36:45;97679.75;;;23.36;67.72
61035;BME280;46916;40.564;-7.958;2023-06-26T08:38:46;97676.25;;;23.42;67.80
61035;BME280;46916;40.564;-7.958;2023-06-26T08:40:47;97677.28;;;23.54;67.50
61035;BME280;46916;40.564;-7.958;2023-06-26T08:42:48;97677.47;;;23.59;67.15
61035;BME280;46916;40.564;-7.958;2023-06-26T08:44:53;97686.16;;;23.68;67.04
61035;BME280;46916;40.564;-7.958;2023-06-26T08:46:53;97673.41;;;23.77;66.86
61035;BME280;46916;40.564;-7.958;2023-06-26T08:49:01;97683.66;;;23.86;67.17
61035;BME280;46916;40.564;-7.958;2023-06-26T08:51:12;97682.41;;;23.95;66.71
61035;BME280;46916;40.564;-7.958;2023-06-26T08:55:27;97682.59;;;24.07;66.21
61035;BME280;46916;40.564;-7.958;2023-06-26T08:57:30;97682.34;;;24.15;66.34
61035;BME280;46916;40.564;-7.958;2023-06-26T08:59:32;97679.03;;;24.20;66.72
61035;BME280;46916;40.564;-7.958;2023-06-26T09:01:32;97674.31;;;24.22;66.74
61035;BME280;46916;40.564;-7.958;2023-06-26T09:03:34;97676.59;;;24.25;66.86
61035;BME280;46916;40.564;-7.958;2023-06-26T09:05:35;97677.81;;;24.29;66.93
61035;BME280;46916;40.564;-7.958;2023-06-26T09:07:36;97678.19;;;24.33;67.11
61035;BME280;46916;40.564;-7.958;2023-06-26T09:09:37;97675.09;;;24.36;67.17
61035;BME280;46916;40.564;-7.958;2023-06-26T09:11:38;97674.28;;;24.35;67.57
61035;BME280;46916;40.564;-7.958;2023-06-26T09:13:39;97672.88;;;24.26;67.95
61035;BME280;46916;40.564;-7.958;2023-06-26T09:15:44;97671.84;;;24.20;68.56
61035;BME280;46916;40.564;-7.958;2023-06-26T09:17:48;97671.41;;;24.23;68.66
61035;BME280;46916;40.564;-7.958;2023-06-26T09:19:48;97664.03;;;24.26;68.65
61035;BME280;46916;40.564;-7.958;2023-06-26T09:21:50;97669.78;;;24.22;68.79
61035;BME280;46916;40.564;-7.958;2023-06-26T09:23:52;97670.59;;;24.23;69.06
61035;BME280;46916;40.564;-7.958;2023-06-26T09:25:54;97665.66;;;24.27;68.74
61035;BME280;46916;40.564;-7.958;2023-06-26T09:27:55;97661.31;;;24.32;68.89
61035;BME280;46916;40.564;-7.958;2023-06-26T09:29:56;97654.09;;;24.39;68.37
61035;BME280;46916;40.564;-7.958;2023-06-26T09:31:59;97654.09;;;24.39;68.38
61035;BME280;46916;40.564;-7.958;2023-06-26T09:34:00;97656.38;;;24.42;68.22
61035;BME280;46916;40.564;-7.958;2023-06-26T09:36:01;97657.34;;;24.48;68.23
61035;BME280;46916;40.564;-7.958;2023-06-26T09:38:02;97647.88;;;24.52;68.05
61035;BME280;46916;40.564;-7.958;2023-06-26T09:40:04;97655.25;;;24.57;68.07
61035;BME280;46916;40.564;-7.958;2023-06-26T09:42:05;97658.97;;;24.62;67.46
61035;BME280;46916;40.564;-7.958;2023-06-26T09:44:10;97657.28;;;24.68;67.46
61035;BME280;46916;40.564;-7.958;2023-06-26T09:46:25;97650.69;;;24.70;67.30
61035;BME280;46916;40.564;-7.958;2023-06-26T09:48:28;97647.94;;;24.77;66.88
61035;BME280;46916;40.564;-7.958;2023-06-26T09:50:29;97659.88;;;24.81;66.98
61035;BME280;46916;40.564;-7.958;2023-06-26T09:52:35;97653.03;;;24.85;66.74
61035;BME280;46916;40.564;-7.958;2023-06-26T09:54:35;97644.34;;;24.90;66.90
61035;BME280;46916;40.564;-7.958;2023-06-26T09:56:36;97646.84;;;24.91;66.70
61035;BME280;46916;40.564;-7.958;2023-06-26T09:58:37;97649.69;;;24.96;67.40
61035;BME280;46916;40.564;-7.958;2023-06-26T10:00:39;97647.81;;;24.97;67.88
61035;BME280;46916;40.564;-7.958;2023-06-26T10:02:40;97641.22;;;25.00;67.50
61035;BME280;46916;40.564;-7.958;2023-06-26T10:04:40;97647.75;;;25.10;67.17
61035;BME280;46916;40.564;-7.958;2023-06-26T10:06:46;97651.63;;;25.14;67.14
61035;BME280;46916;40.564;-7.958;2023-06-26T10:08:48;97657.41;;;25.18;66.54
61035;BME280;46916;40.564;-7.958;2023-06-26T10:10:49;97644.59;;;25.20;66.09
61035;BME280;46916;40.564;-7.958;2023-06-26T10:12:54;97649.53;;;25.23;65.88
61035;BME280;46916;40.564;-7.958;2023-06-26T10:15:01;97646.41;;;25.26;66.17
61035;BME280;46916;40.564;-7.958;2023-06-26T10:17:07;97651.97;;;25.31;66.30
61035;BME280;46916;40.564;-7.958;2023-06-26T10:19:10;97635.41;;;25.34;66.52
61035;BME280;46916;40.564;-7.958;2023-06-26T10:21:12;97650.03;;;25.38;66.25
61035;BME280;46916;40.564;-7.958;2023-06-26T10:23:15;97647.72;;;25.42;66.16
61035;BME280;46916;40.564;-7.958;2023-06-26T10:25:20;97648.94;;;25.46;65.78
61035;BME280;46916;40.564;-7.958;2023-06-26T10:27:24;97647.69;;;25.49;65.66
61035;BME280;46916;40.564;-7.958;2023-06-26T10:29:26;97654.25;;;25.53;65.48
61035;BME280;46916;40.564;-7.958;2023-06-26T10:31:28;97650.50;;;25.54;65.24
61035;BME280;46916;40.564;-7.958;2023-06-26T10:33:30;97657.09;;;25.58;65.21
61035;BME280;46916;40.564;-7.958;2023-06-26T10:35:31;97650.47;;;25.60;65.01
61035;BME280;46916;40.564;-7.958;2023-06-26T10:37:46;97648.75;;;25.66;65.24
61035;BME280;46916;40.564;-7.958;2023-06-26T10:40:06;97657.56;;;25.73;65.28
61035;BME280;46916;40.564;-7.958;2023-06-26T10:42:36;97652.16;;;25.80;64.75
61035;BME280;46916;40.564;-7.958;2023-06-26T10:44:47;97649.66;;;25.85;64.33
61035;BME280;46916;40.564;-7.958;2023-06-26T10:46:52;97645.47;;;25.89;64.02
61035;BME280;46916;40.564;-7.958;2023-06-26T10:49:00;97643.38;;;25.91;63.97
61035;BME280;46916;40.564;-7.958;2023-06-26T10:51:13;97643.31;;;25.98;63.76
61035;BME280;46916;40.564;-7.958;2023-06-26T10:53:33;97639.97;;;26.02;63.71
61035;BME280;46916;40.564;-7.958;2023-06-26T10:55:36;97641.75;;;26.08;63.22
61035;BME280;46916;40.564;-7.958;2023-06-26T10:57:37;97643.31;;;26.16;63.40
61035;BME280;46916;40.564;-7.958;2023-06-26T10:59:39;97640.78;;;26.21;63.28
61035;BME280;46916;40.564;-7.958;2023-06-26T11:01:43;97634.06;;;26.30;62.93